Terminal Aerodrome Forecast
Issued by NWS St Louis, MO

Home | Current Version | Previous Version | Text Only | Print | Product List | Glossary On
Versions: 1 2 3 4 5 6 7 8 9 10 11 12 13 14 15
000
FTUS43 KLSX 311300 AAA
TAFCOU
TAF AMD
KCOU 311321Z 3113/0112 36018G28KT P6SM BKN030
     FM311400 35017G27KT P6SM SKC
     FM010000 34011KT P6SM SKC
     FM010300 35004KT P6SM SKC=

USA.gov is the U.S. government's official web portal to all federal, state and local government web resources and services.